sensor_id;sensor_type;location;lat;lon;timestamp;P1;durP1;ratioP1;P2;durP2;ratioP2
35969;SDS011;22448;51.298;6.430;2023-02-28T00:00:37;17.63;;;7.43;;
35969;SDS011;22448;51.298;6.430;2023-02-28T00:03:05;15.27;;;7.70;;
35969;SDS011;22448;51.298;6.430;2023-02-28T00:05:32;20.45;;;8.15;;
35969;SDS011;22448;51.298;6.430;2023-02-28T00:08:00;18.48;;;8.18;;
35969;SDS011;22448;51.298;6.430;2023-02-28T00:10:28;14.43;;;8.15;;
35969;SDS011;22448;51.298;6.430;2023-02-28T00:12:58;21.13;;;8.23;;
35969;SDS011;22448;51.298;6.430;2023-02-28T00:15:28;26.73;;;8.40;;
35969;SDS011;22448;51.298;6.430;2023-02-28T00:17:55;19.60;;;9.32;;
35969;SDS011;22448;51.298;6.430;2023-02-28T00:20:22;15.63;;;8.43;;
35969;SDS011;22448;51.298;6.430;2023-02-28T00:22:50;19.65;;;9.65;;
35969;SDS011;22448;51.298;6.430;2023-02-28T00:25:20;21.40;;;10.20;;
35969;SDS011;22448;51.298;6.430;2023-02-28T00:27:49;19.92;;;8.93;;
35969;SDS011;22448;51.298;6.430;2023-02-28T00:30:17;17.83;;;9.52;;
35969;SDS011;22448;51.298;6.430;2023-02-28T00:32:46;18.77;;;8.52;;
35969;SDS011;22448;51.298;6.430;2023-02-28T00:35:13;16.45;;;8.45;;
35969;SDS011;22448;51.298;6.430;2023-02-28T00:37:40;14.80;;;8.50;;
35969;SDS011;22448;51.298;6.430;2023-02-28T00:40:08;16.10;;;8.48;;
35969;SDS011;22448;51.298;6.430;2023-02-28T00:42:36;20.70;;;8.52;;
35969;SDS011;22448;51.298;6.430;2023-02-28T00:45:03;19.48;;;8.02;;
35969;SDS011;22448;51.298;6.430;2023-02-28T00:47:31;16.40;;;8.15;;
35969;SDS011;22448;51.298;6.430;2023-02-28T00:49:59;12.73;;;7.55;;
35969;SDS011;22448;51.298;6.430;2023-02-28T00:52:27;16.80;;;8.23;;
35969;SDS011;22448;51.298;6.430;2023-02-28T00:54:54;17.58;;;8.65;;
35969;SDS011;22448;51.298;6.430;2023-02-28T00:57:21;26.75;;;8.98;;
35969;SDS011;22448;51.298;6.430;2023-02-28T00:59:48;24.02;;;9.23;;
35969;SDS011;22448;51.298;6.430;2023-02-28T01:02:15;16.70;;;8.25;;
35969;SDS011;22448;51.298;6.430;2023-02-28T01:04:44;21.80;;;8.75;;
35969;SDS011;22448;51.298;6.430;2023-02-28T01:07:11;20.50;;;8.73;;
35969;SDS011;22448;51.298;6.430;2023-02-28T01:09:38;16.08;;;8.30;;
35969;SDS011;22448;51.298;6.430;2023-02-28T01:12:06;25.35;;;9.32;;
35969;SDS011;22448;51.298;6.430;2023-02-28T01:14:34;31.58;;;8.63;;
35969;SDS011;22448;51.298;6.430;2023-02-28T01:17:01;18.45;;;8.70;;
35969;SDS011;22448;51.298;6.430;2023-02-28T01:19:30;20.45;;;8.85;;
35969;SDS011;22448;51.298;6.430;2023-02-28T01:22:00;17.77;;;8.55;;
35969;SDS011;22448;51.298;6.430;2023-02-28T01:24:28;22.50;;;8.85;;
35969;SDS011;22448;51.298;6.430;2023-02-28T01:26:55;19.02;;;8.52;;
35969;SDS011;22448;51.298;6.430;2023-02-28T01:29:22;14.82;;;7.88;;
35969;SDS011;22448;51.298;6.430;2023-02-28T01:31:51;23.05;;;10.10;;
35969;SDS011;22448;51.298;6.430;2023-02-28T01:34:19;19.17;;;9.07;;
35969;SDS011;22448;51.298;6.430;2023-02-28T01:36:46;25.83;;;11.73;;
35969;SDS011;22448;51.298;6.430;2023-02-28T01:39:13;46.10;;;15.07;;
35969;SDS011;22448;51.298;6.430;2023-02-28T01:41:40;35.60;;;14.90;;
35969;SDS011;22448;51.298;6.430;2023-02-28T01:47:12;38.10;;;15.60;;
35969;SDS011;22448;51.298;6.430;2023-02-28T01:49:40;29.70;;;12.18;;
35969;SDS011;22448;51.298;6.430;2023-02-28T01:52:07;22.52;;;9.77;;
35969;SDS011;22448;51.298;6.430;2023-02-28T01:54:41;17.33;;;8.57;;
35969;SDS011;22448;51.298;6.430;2023-02-28T01:57:14;15.32;;;7.97;;
35969;SDS011;22448;51.298;6.430;2023-02-28T01:59:54;16.38;;;8.73;;
35969;SDS011;22448;51.298;6.430;2023-02-28T02:02:38;16.38;;;7.70;;
35969;SDS011;22448;51.298;6.430;2023-02-28T02:05:10;16.00;;;7.68;;
35969;SDS011;22448;51.298;6.430;2023-02-28T02:07:41;16.90;;;7.72;;
35969;SDS011;22448;51.298;6.430;2023-02-28T02:10:13;21.30;;;8.57;;
35969;SDS011;22448;51.298;6.430;2023-02-28T02:13:01;16.45;;;8.05;;
35969;SDS011;22448;51.298;6.430;2023-02-28T02:18:36;19.42;;;8.02;;
35969;SDS011;22448;51.298;6.430;2023-02-28T02:38:21;19.40;;;8.27;;
35969;SDS011;22448;51.298;6.430;2023-02-28T02:40:57;14.95;;;7.55;;
35969;SDS011;22448;51.298;6.430;2023-02-28T02:44:11;17.65;;;7.65;;
35969;SDS011;22448;51.298;6.430;2023-02-28T02:46:45;17.05;;;7.88;;
35969;SDS011;22448;51.298;6.430;2023-02-28T02:49:21;16.25;;;8.43;;
35969;SDS011;22448;51.298;6.430;2023-02-28T02:51:54;21.42;;;7.80;;
35969;SDS011;22448;51.298;6.430;2023-02-28T02:54:24;18.23;;;7.32;;
35969;SDS011;22448;51.298;6.430;2023-02-28T02:56:56;17.33;;;8.05;;
35969;SDS011;22448;51.298;6.430;2023-02-28T02:59:27;17.88;;;8.60;;
35969;SDS011;22448;51.298;6.430;2023-02-28T03:01:57;13.90;;;7.63;;
35969;SDS011;22448;51.298;6.430;2023-02-28T03:04:28;18.52;;;9.07;;
35969;SDS011;22448;51.298;6.430;2023-02-28T03:06:59;14.48;;;7.50;;
35969;SDS011;22448;51.298;6.430;2023-02-28T03:09:26;18.67;;;8.93;;
35969;SDS011;22448;51.298;6.430;2023-02-28T03:11:54;18.60;;;7.80;;
35969;SDS011;22448;51.298;6.430;2023-02-28T03:16:59;20.05;;;8.45;;
35969;SDS011;22448;51.298;6.430;2023-02-28T03:19:43;17.33;;;8.07;;
35969;SDS011;22448;51.298;6.430;2023-02-28T03:22:38;21.88;;;9.05;;
35969;SDS011;22448;51.298;6.430;2023-02-28T03:28:27;22.30;;;8.35;;
35969;SDS011;22448;51.298;6.430;2023-02-28T03:31:00;21.67;;;9.43;;
35969;SDS011;22448;51.298;6.430;2023-02-28T03:33:38;43.25;;;13.32;;
35969;SDS011;22448;51.298;6.430;2023-02-28T03:36:16;40.92;;;15.02;;
35969;SDS011;22448;51.298;6.430;2023-02-28T03:38:48;24.88;;;11.60;;
35969;SDS011;22448;51.298;6.430;2023-02-28T03:44:24;19.83;;;9.43;;
35969;SDS011;22448;51.298;6.430;2023-02-28T03:50:03;48.88;;;14.18;;
35969;SDS011;22448;51.298;6.430;2023-02-28T03:52:35;35.35;;;12.48;;
35969;SDS011;22448;51.298;6.430;2023-02-28T03:55:08;30.05;;;10.95;;
35969;SDS011;22448;51.298;6.430;2023-02-28T03:57:40;19.23;;;8.63;;
35969;SDS011;22448;51.298;6.430;2023-02-28T04:00:34;15.88;;;6.80;;
35969;SDS011;22448;51.298;6.430;2023-02-28T04:03:05;16.58;;;6.38;;
35969;SDS011;22448;51.298;6.430;2023-02-28T04:05:32;15.23;;;6.57;;
35969;SDS011;22448;51.298;6.430;2023-02-28T04:08:10;10.90;;;6.53;;
35969;SDS011;22448;51.298;6.430;2023-02-28T04:10:37;15.18;;;6.88;;
35969;SDS011;22448;51.298;6.430;2023-02-28T04:13:05;22.02;;;6.95;;
35969;SDS011;22448;51.298;6.430;2023-02-28T04:15:32;23.90;;;6.38;;
35969;SDS011;22448;51.298;6.430;2023-02-28T04:17:59;18.75;;;6.93;;
35969;SDS011;22448;51.298;6.430;2023-02-28T04:20:26;17.77;;;7.07;;
35969;SDS011;22448;51.298;6.430;2023-02-28T04:22:53;12.25;;;5.75;;
35969;SDS011;22448;51.298;6.430;2023-02-28T04:25:20;12.95;;;6.85;;
35969;SDS011;22448;51.298;6.430;2023-02-28T04:27:47;13.30;;;6.32;;
35969;SDS011;22448;51.298;6.430;2023-02-28T04:30:15;12.45;;;6.32;;
35969;SDS011;22448;51.298;6.430;2023-02-28T04:32:42;11.52;;;6.40;;
35969;SDS011;22448;51.298;6.430;2023-02-28T04:35:09;14.18;;;6.05;;
35969;SDS011;22448;51.298;6.430;2023-02-28T04:37:38;14.30;;;6.22;;
35969;SDS011;22448;51.298;6.430;2023-02-28T04:40:05;18.85;;;6.22;;
35969;SDS011;22448;51.298;6.430;2023-02-28T04:42:32;14.68;;;6.55;;
35969;SDS011;22448;51.298;6.430;2023-02-28T04:45:02;10.88;;;6.07;;
35969;SDS011;22448;51.298;6.430;2023-02-28T04:47:30;14.50;;;6.22;;
35969;SDS011;22448;51.298;6.430;2023-02-28T04:49:57;18.58;;;6.57;;
35969;SDS011;22448;51.298;6.430;2023-02-28T04:52:24;14.88;;;6.95;;
35969;SDS011;22448;51.298;6.430;2023-02-28T04:54:53;10.48;;;5.93;;
35969;SDS011;22448;51.298;6.430;2023-02-28T04:57:20;17.33;;;6.50;;
35969;SDS011;22448;51.298;6.430;2023-02-28T04:59:47;14.80;;;6.50;;
35969;SDS011;22448;51.298;6.430;2023-02-28T05:02:14;14.05;;;6.40;;
35969;SDS011;22448;51.298;6.430;2023-02-28T05:04:41;15.57;;;6.22;;
35969;SDS011;22448;51.298;6.430;2023-02-28T05:07:08;24.33;;;6.82;;
35969;SDS011;22448;51.298;6.430;2023-02-28T05:09:36;14.15;;;7.32;;
35969;SDS011;22448;51.298;6.430;2023-02-28T05:12:03;19.42;;;6.82;;
35969;SDS011;22448;51.298;6.430;2023-02-28T05:14:30;16.00;;;6.38;;
35969;SDS011;22448;51.298;6.430;2023-02-28T05:16:57;18.20;;;6.82;;
35969;SDS011;22448;51.298;6.430;2023-02-28T05:19:24;15.98;;;6.35;;
35969;SDS011;22448;51.298;6.430;2023-02-28T05:21:54;14.10;;;5.75;;
35969;SDS011;22448;51.298;6.430;2023-02-28T05:24:22;16.67;;;6.55;;
35969;SDS011;22448;51.298;6.430;2023-02-28T05:26:50;14.07;;;6.10;;
35969;SDS011;22448;51.298;6.430;2023-02-28T05:29:19;16.17;;;6.50;;
35969;SDS011;22448;51.298;6.430;2023-02-28T05:31:46;10.10;;;5.90;;
35969;SDS011;22448;51.298;6.430;2023-02-28T05:34:13;15.52;;;6.45;;
35969;SDS011;22448;51.298;6.430;2023-02-28T05:36:42;15.75;;;6.93;;
35969;SDS011;22448;51.298;6.430;2023-02-28T05:39:10;14.07;;;6.28;;
35969;SDS011;22448;51.298;6.430;2023-02-28T05:41:40;18.25;;;6.88;;
35969;SDS011;22448;51.298;6.430;2023-02-28T05:44:08;16.17;;;6.78;;
35969;SDS011;22448;51.298;6.430;2023-02-28T05:46:36;15.13;;;6.63;;
35969;SDS011;22448;51.298;6.430;2023-02-28T05:49:03;13.30;;;6.97;;
35969;SDS011;22448;51.298;6.430;2023-02-28T05:51:30;16.67;;;7.20;;
35969;SDS011;22448;51.298;6.430;2023-02-28T05:53:58;24.70;;;8.23;;
35969;SDS011;22448;51.298;6.430;2023-02-28T05:56:26;26.52;;;7.80;;
35969;SDS011;22448;51.298;6.430;2023-02-28T05:58:54;18.85;;;7.38;;
35969;SDS011;22448;51.298;6.430;2023-02-28T06:03:59;25.98;;;7.88;;
35969;SDS011;22448;51.298;6.430;2023-02-28T06:06:27;17.67;;;7.68;;
35969;SDS011;22448;51.298;6.430;2023-02-28T06:08:56;18.60;;;7.50;;
35969;SDS011;22448;51.298;6.430;2023-02-28T06:11:23;21.10;;;7.55;;
35969;SDS011;22448;51.298;6.430;2023-02-28T06:13:54;18.13;;;6.50;;
35969;SDS011;22448;51.298;6.430;2023-02-28T06:16:23;25.73;;;7.35;;
35969;SDS011;22448;51.298;6.430;2023-02-28T06:18:51;24.60;;;8.27;;
35969;SDS011;22448;51.298;6.430;2023-02-28T06:21:19;18.25;;;6.57;;
35969;SDS011;22448;51.298;6.430;2023-02-28T06:23:46;13.88;;;6.60;;
35969;SDS011;22448;51.298;6.430;2023-02-28T06:26:12;16.10;;;7.03;;
35969;SDS011;22448;51.298;6.430;2023-02-28T06:28:40;22.95;;;6.93;;
35969;SDS011;22448;51.298;6.430;2023-02-28T06:31:07;23.85;;;7.50;;
35969;SDS011;22448;51.298;6.430;2023-02-28T06:33:37;24.67;;;7.35;;
35969;SDS011;22448;51.298;6.430;2023-02-28T06:36:05;21.52;;;7.18;;
35969;SDS011;22448;51.298;6.430;2023-02-28T06:38:32;19.23;;;6.35;;
35969;SDS011;22448;51.298;6.430;2023-02-28T06:41:00;20.67;;;6.85;;
35969;SDS011;22448;51.298;6.430;2023-02-28T06:43:32;17.48;;;7.25;;
35969;SDS011;22448;51.298;6.430;2023-02-28T06:46:03;20.05;;;6.70;;
35969;SDS011;22448;51.298;6.430;2023-02-28T06:48:31;20.48;;;6.70;;
35969;SDS011;22448;51.298;6.430;2023-02-28T06:51:08;30.42;;;7.63;;
35969;SDS011;22448;51.298;6.430;2023-02-28T06:53:36;16.88;;;6.53;;
35969;SDS011;22448;51.298;6.430;2023-02-28T06:56:08;36.08;;;12.05;;
35969;SDS011;22448;51.298;6.430;2023-02-28T07:01:06;19.92;;;8.48;;
35969;SDS011;22448;51.298;6.430;2023-02-28T07:03:37;19.58;;;6.80;;
35969;SDS011;22448;51.298;6.430;2023-02-28T07:06:04;16.25;;;7.53;;
35969;SDS011;22448;51.298;6.430;2023-02-28T07:08:32;17.40;;;7.38;;
35969;SDS011;22448;51.298;6.430;2023-02-28T07:10:59;16.98;;;6.30;;
35969;SDS011;22448;51.298;6.430;2023-02-28T07:13:26;21.33;;;7.03;;
35969;SDS011;22448;51.298;6.430;2023-02-28T07:15:54;32.22;;;8.07;;
35969;SDS011;22448;51.298;6.430;2023-02-28T07:18:22;23.77;;;7.82;;
35969;SDS011;22448;51.298;6.430;2023-02-28T07:20:50;19.50;;;7.43;;
35969;SDS011;22448;51.298;6.430;2023-02-28T07:23:17;15.57;;;7.00;;
35969;SDS011;22448;51.298;6.430;2023-02-28T07:25:44;18.38;;;7.47;;
35969;SDS011;22448;51.298;6.430;2023-02-28T07:28:12;18.65;;;7.22;;
35969;SDS011;22448;51.298;6.430;2023-02-28T07:30:41;14.07;;;6.15;;
35969;SDS011;22448;51.298;6.430;2023-02-28T07:33:08;22.40;;;6.15;;
35969;SDS011;22448;51.298;6.430;2023-02-28T07:35:36;22.90;;;5.72;;
35969;SDS011;22448;51.298;6.430;2023-02-28T07:38:03;22.58;;;6.10;;
35969;SDS011;22448;51.298;6.430;2023-02-28T07:40:30;13.85;;;4.85;;
35969;SDS011;22448;51.298;6.430;2023-02-28T07:42:58;11.48;;;4.72;;
35969;SDS011;22448;51.298;6.430;2023-02-28T07:45:26;11.77;;;4.57;;
35969;SDS011;22448;51.298;6.430;2023-02-28T07:47:55;20.85;;;4.70;;
35969;SDS011;22448;51.298;6.430;2023-02-28T07:50:22;15.27;;;5.13;;
35969;SDS011;22448;51.298;6.430;2023-02-28T07:52:52;13.27;;;5.25;;
35969;SDS011;22448;51.298;6.430;2023-02-28T07:55:19;13.70;;;5.10;;
35969;SDS011;22448;51.298;6.430;2023-02-28T07:57:46;15.02;;;5.38;;
35969;SDS011;22448;51.298;6.430;2023-02-28T08:00:13;11.93;;;5.55;;
35969;SDS011;22448;51.298;6.430;2023-02-28T08:02:40;10.10;;;4.63;;
35969;SDS011;22448;51.298;6.430;2023-02-28T08:05:07;12.13;;;4.38;;
35969;SDS011;22448;51.298;6.430;2023-02-28T08:07:35;12.98;;;4.15;;
35969;SDS011;22448;51.298;6.430;2023-02-28T08:10:02;13.27;;;4.65;;
35969;SDS011;22448;51.298;6.430;2023-02-28T08:12:32;15.57;;;4.88;;
35969;SDS011;22448;51.298;6.430;2023-02-28T08:14:59;7.07;;;3.78;;
35969;SDS011;22448;51.298;6.430;2023-02-28T08:17:26;9.98;;;3.72;;
35969;SDS011;22448;51.298;6.430;2023-02-28T08:19:53;10.90;;;4.30;;
35969;SDS011;22448;51.298;6.430;2023-02-28T08:22:20;11.63;;;4.28;;
35969;SDS011;22448;51.298;6.430;2023-02-28T08:24:47;9.18;;;3.70;;
35969;SDS011;22448;51.298;6.430;2023-02-28T08:27:15;14.45;;;4.00;;
35969;SDS011;22448;51.298;6.430;2023-02-28T08:29:42;12.57;;;4.10;;
35969;SDS011;22448;51.298;6.430;2023-02-28T08:32:09;12.07;;;4.47;;
35969;SDS011;22448;51.298;6.430;2023-02-28T08:34:52;13.73;;;4.32;;
35969;SDS011;22448;51.298;6.430;2023-02-28T08:37:19;10.38;;;4.10;;
35969;SDS011;22448;51.298;6.430;2023-02-28T08:39:46;11.10;;;4.35;;
35969;SDS011;22448;51.298;6.430;2023-02-28T08:42:13;4.63;;;2.50;;
35969;SDS011;22448;51.298;6.430;2023-02-28T08:44:40;4.28;;;2.10;;
35969;SDS011;22448;51.298;6.430;2023-02-28T08:47:07;4.93;;;2.80;;
35969;SDS011;22448;51.298;6.430;2023-02-28T08:49:34;6.82;;;2.40;;
35969;SDS011;22448;51.298;6.430;2023-02-28T08:52:01;4.13;;;2.53;;
35969;SDS011;22448;51.298;6.430;2023-02-28T08:54:28;4.13;;;3.08;;
35969;SDS011;22448;51.298;6.430;2023-02-28T08:56:57;4.65;;;2.58;;
35969;SDS011;22448;51.298;6.430;2023-02-28T08:59:24;5.15;;;2.70;;
35969;SDS011;22448;51.298;6.430;2023-02-28T09:01:51;7.72;;;3.22;;
35969;SDS011;22448;51.298;6.430;2023-02-28T09:04:18;4.40;;;2.30;;
35969;SDS011;22448;51.298;6.430;2023-02-28T09:06:46;10.95;;;3.47;;
35969;SDS011;22448;51.298;6.430;2023-02-28T09:09:15;8.50;;;3.75;;
35969;SDS011;22448;51.298;6.430;2023-02-28T09:11:42;7.00;;;2.25;;
35969;SDS011;22448;51.298;6.430;2023-02-28T09:14:09;5.97;;;2.60;;
35969;SDS011;22448;51.298;6.430;2023-02-28T09:16:36;4.72;;;2.08;;
35969;SDS011;22448;51.298;6.430;2023-02-28T09:19:04;4.07;;;1.95;;
35969;SDS011;22448;51.298;6.430;2023-02-28T09:21:31;6.47;;;2.95;;
35969;SDS011;22448;51.298;6.430;2023-02-28T09:23:58;11.32;;;4.00;;
35969;SDS011;22448;51.298;6.430;2023-02-28T09:26:26;7.43;;;2.80;;
35969;SDS011;22448;51.298;6.430;2023-02-28T09:29:08;14.82;;;5.97;;
35969;SDS011;22448;51.298;6.430;2023-02-28T09:31:35;9.80;;;4.53;;
35969;SDS011;22448;51.298;6.430;2023-02-28T09:34:03;17.05;;;6.10;;
35969;SDS011;22448;51.298;6.430;2023-02-28T09:36:30;8.10;;;4.63;;
35969;SDS011;22448;51.298;6.430;2023-02-28T09:39:10;4.10;;;2.58;;
35969;SDS011;22448;51.298;6.430;2023-02-28T09:41:40;3.25;;;2.33;;
35969;SDS011;22448;51.298;6.430;2023-02-28T09:44:19;3.65;;;2.60;;
35969;SDS011;22448;51.298;6.430;2023-02-28T09:46:55;4.25;;;2.47;;
35969;SDS011;22448;51.298;6.430;2023-02-28T09:49:28;3.53;;;2.15;;
35969;SDS011;22448;51.298;6.430;2023-02-28T09:52:03;5.88;;;1.95;;
35969;SDS011;22448;51.298;6.430;2023-02-28T09:54:35;3.20;;;1.65;;
35969;SDS011;22448;51.298;6.430;2023-02-28T09:57:07;3.97;;;1.90;;
35969;SDS011;22448;51.298;6.430;2023-02-28T10:05:26;5.68;;;2.47;;
35969;SDS011;22448;51.298;6.430;2023-02-28T10:08:12;13.80;;;3.22;;
35969;SDS011;22448;51.298;6.430;2023-02-28T10:10:48;4.68;;;2.10;;
35969;SDS011;22448;51.298;6.430;2023-02-28T10:13:33;7.35;;;2.70;;
35969;SDS011;22448;51.298;6.430;2023-02-28T10:16:10;9.13;;;2.10;;
35969;SDS011;22448;51.298;6.430;2023-02-28T10:18:43;8.00;;;1.98;;
35969;SDS011;22448;51.298;6.430;2023-02-28T10:21:23;9.07;;;2.40;;
35969;SDS011;22448;51.298;6.430;2023-02-28T10:23:56;5.18;;;2.10;;
35969;SDS011;22448;51.298;6.430;2023-02-28T10:26:29;10.52;;;2.38;;
35969;SDS011;22448;51.298;6.430;2023-02-28T10:28:59;6.10;;;2.47;;
35969;SDS011;22448;51.298;6.430;2023-02-28T10:31:26;2.85;;;1.63;;
35969;SDS011;22448;51.298;6.430;2023-02-28T10:33:53;8.60;;;2.17;;
35969;SDS011;22448;51.298;6.430;2023-02-28T10:36:20;11.07;;;2.45;;
35969;SDS011;22448;51.298;6.430;2023-02-28T10:38:48;5.78;;;2.15;;
35969;SDS011;22448;51.298;6.430;2023-02-28T10:41:31;7.60;;;2.28;;
35969;SDS011;22448;51.298;6.430;2023-02-28T10:44:12;6.63;;;2.38;;
35969;SDS011;22448;51.298;6.430;2023-02-28T10:46:40;13.27;;;3.88;;
35969;SDS011;22448;51.298;6.430;2023-02-28T10:49:17;10.73;;;1.90;;
35969;SDS011;22448;51.298;6.430;2023-02-28T10:51:54;8.50;;;2.75;;
35969;SDS011;22448;51.298;6.430;2023-02-28T10:54:33;3.47;;;1.67;;
35969;SDS011;22448;51.298;6.430;2023-02-28T10:57:21;2.80;;;1.85;;
35969;SDS011;22448;51.298;6.430;2023-02-28T10:59:53;6.75;;;2.45;;
35969;SDS011;22448;51.298;6.430;2023-02-28T11:02:41;7.47;;;2.38;;
35969;SDS011;22448;51.298;6.430;2023-02-28T11:05:23;5.28;;;2.60;;
35969;SDS011;22448;51.298;6.430;2023-02-28T11:07:53;7.63;;;2.28;;
35969;SDS011;22448;51.298;6.430;2023-02-28T11:10:44;10.73;;;2.13;;
35969;SDS011;22448;51.298;6.430;2023-02-28T11:13:21;3.35;;;2.33;;
35969;SDS011;22448;51.298;6.430;2023-02-28T11:15:56;7.50;;;2.67;;
35969;SDS011;22448;51.298;6.430;2023-02-28T11:18:27;4.88;;;2.58;;
35969;SDS011;22448;51.298;6.430;2023-02-28T11:20:55;7.70;;;2.22;;
35969;SDS011;22448;51.298;6.430;2023-02-28T11:23:25;6.18;;;2.10;;
35969;SDS011;22448;51.298;6.430;2023-02-28T11:25:54;3.13;;;1.90;;
35969;SDS011;22448;51.298;6.430;2023-02-28T11:28:29;4.85;;;2.42;;
35969;SDS011;22448;51.298;6.430;2023-02-28T11:33:43;5.15;;;2.35;;
35969;SDS011;22448;51.298;6.430;2023-02-28T11:36:13;8.20;;;2.10;;
35969;SDS011;22448;51.298;6.430;2023-02-28T11:38:46;4.07;;;2.28;;
35969;SDS011;22448;51.298;6.430;2023-02-28T11:44:05;4.55;;;1.98;;
35969;SDS011;22448;51.298;6.430;2023-02-28T11:46:49;5.25;;;2.45;;
35969;SDS011;22448;51.298;6.430;2023-02-28T11:49:26;6.38;;;2.40;;
35969;SDS011;22448;51.298;6.430;2023-02-28T11:52:00;3.88;;;1.98;;
35969;SDS011;22448;51.298;6.430;2023-02-28T11:54:46;5.75;;;1.80;;
35969;SDS011;22448;51.298;6.430;2023-02-28T11:57:56;4.78;;;2.03;;
35969;SDS011;22448;51.298;6.430;2023-02-28T12:00:30;4.40;;;1.80;;
35969;SDS011;22448;51.298;6.430;2023-02-28T12:03:15;5.63;;;2.15;;
35969;SDS011;22448;51.298;6.430;2023-02-28T12:06:05;3.97;;;2.10;;
35969;SDS011;22448;51.298;6.430;2023-02-28T12:09:04;5.03;;;1.90;;
35969;SDS011;22448;51.298;6.430;2023-02-28T12:11:51;3.97;;;2.10;;
35969;SDS011;22448;51.298;6.430;2023-02-28T12:17:15;4.22;;;2.00;;
35969;SDS011;22448;51.298;6.430;2023-02-28T12:22:36;8.02;;;2.30;;
35969;SDS011;22448;51.298;6.430;2023-02-28T12:25:38;6.93;;;2.30;;
35969;SDS011;22448;51.298;6.430;2023-02-28T12:28:38;5.03;;;2.35;;
35969;SDS011;22448;51.298;6.430;2023-02-28T12:31:14;3.47;;;2.30;;
35969;SDS011;22448;51.298;6.430;2023-02-28T12:33:50;4.95;;;2.00;;
35969;SDS011;22448;51.298;6.430;2023-02-28T12:36:19;4.82;;;1.95;;
35969;SDS011;22448;51.298;6.430;2023-02-28T12:38:53;4.55;;;2.25;;
35969;SDS011;22448;51.298;6.430;2023-02-28T12:41:33;2.28;;;1.75;;
35969;SDS011;22448;51.298;6.430;2023-02-28T12:44:03;3.75;;;2.25;;
35969;SDS011;22448;51.298;6.430;2023-02-28T12:46:35;4.20;;;2.65;;
35969;SDS011;22448;51.298;6.430;2023-02-28T12:52:06;5.97;;;2.78;;
35969;SDS011;22448;51.298;6.430;2023-02-28T12:54:44;6.78;;;2.97;;
35969;SDS011;22448;51.298;6.430;2023-02-28T12:57:21;6.93;;;2.72;;
35969;SDS011;22448;51.298;6.430;2023-02-28T13:00:00;5.80;;;2.58;;
35969;SDS011;22448;51.298;6.430;2023-02-28T13:08:10;3.38;;;2.13;;
35969;SDS011;22448;51.298;6.430;2023-02-28T13:10:46;6.70;;;3.00;;
35969;SDS011;22448;51.298;6.430;2023-02-28T13:13:21;6.18;;;2.33;;
35969;SDS011;22448;51.298;6.430;2023-02-28T13:18:45;5.97;;;2.47;;
35969;SDS011;22448;51.298;6.430;2023-02-28T13:21:29;3.70;;;2.15;;
35969;SDS011;22448;51.298;6.430;2023-02-28T13:24:01;5.75;;;2.47;;
35969;SDS011;22448;51.298;6.430;2023-02-28T13:28:58;3.95;;;2.40;;
35969;SDS011;22448;51.298;6.430;2023-02-28T13:31:27;5.95;;;2.63;;
35969;SDS011;22448;51.298;6.430;2023-02-28T13:36:26;4.70;;;2.50;;
35969;SDS011;22448;51.298;6.430;2023-02-28T13:38:58;5.07;;;2.60;;
35969;SDS011;22448;51.298;6.430;2023-02-28T13:41:46;5.70;;;2.75;;
35969;SDS011;22448;51.298;6.430;2023-02-28T13:44:23;3.95;;;2.00;;
35969;SDS011;22448;51.298;6.430;2023-02-28T13:51:49;5.65;;;2.60;;
35969;SDS011;22448;51.298;6.430;2023-02-28T13:57:21;6.25;;;2.65;;
35969;SDS011;22448;51.298;6.430;2023-02-28T14:02:49;4.10;;;2.22;;
35969;SDS011;22448;51.298;6.430;2023-02-28T14:05:21;3.72;;;2.42;;
35969;SDS011;22448;51.298;6.430;2023-02-28T14:08:14;8.07;;;2.80;;
35969;SDS011;22448;51.298;6.430;2023-02-28T14:10:50;6.68;;;2.80;;
35969;SDS011;22448;51.298;6.430;2023-02-28T14:13:42;4.57;;;2.28;;
35969;SDS011;22448;51.298;6.430;2023-02-28T14:16:15;3.88;;;2.20;;
35969;SDS011;22448;51.298;6.430;2023-02-28T14:18:51;6.63;;;2.60;;
35969;SDS011;22448;51.298;6.430;2023-02-28T14:21:33;5.20;;;2.55;;
35969;SDS011;22448;51.298;6.430;2023-02-28T14:24:07;7.28;;;3.00;;
35969;SDS011;22448;51.298;6.430;2023-02-28T14:27:11;4.00;;;2.83;;
35969;SDS011;22448;51.298;6.430;2023-02-28T14:32:43;9.50;;;2.67;;
35969;SDS011;22448;51.298;6.430;2023-02-28T14:38:04;5.18;;;2.67;;
35969;SDS011;22448;51.298;6.430;2023-02-28T14:40:39;5.97;;;2.63;;
35969;SDS011;22448;51.298;6.430;2023-02-28T14:43:18;4.13;;;2.30;;
35969;SDS011;22448;51.298;6.430;2023-02-28T14:45:54;6.20;;;2.60;;
35969;SDS011;22448;51.298;6.430;2023-02-28T14:48:23;5.20;;;2.70;;
35969;SDS011;22448;51.298;6.430;2023-02-28T14:50:53;6.60;;;3.03;;
35969;SDS011;22448;51.298;6.430;2023-02-28T14:53:27;6.47;;;3.28;;
35969;SDS011;22448;51.298;6.430;2023-02-28T14:55:56;6.60;;;3.47;;
35969;SDS011;22448;51.298;6.430;2023-02-28T14:58:25;7.38;;;3.30;;
35969;SDS011;22448;51.298;6.430;2023-02-28T15:00:57;6.47;;;3.20;;
35969;SDS011;22448;51.298;6.430;2023-02-28T15:06:00;6.75;;;3.47;;
35969;SDS011;22448;51.298;6.430;2023-02-28T15:08:40;8.13;;;3.75;;
35969;SDS011;22448;51.298;6.430;2023-02-28T15:11:08;7.50;;;3.72;;
35969;SDS011;22448;51.298;6.430;2023-02-28T15:13:46;5.60;;;3.55;;
35969;SDS011;22448;51.298;6.430;2023-02-28T15:16:28;9.77;;;3.53;;
35969;SDS011;22448;51.298;6.430;2023-02-28T15:19:00;8.05;;;3.80;;
35969;SDS011;22448;51.298;6.430;2023-02-28T15:21:30;6.80;;;3.15;;
35969;SDS011;22448;51.298;6.430;2023-02-28T15:26:34;6.25;;;3.20;;
35969;SDS011;22448;51.298;6.430;2023-02-28T15:29:06;4.95;;;3.00;;
35969;SDS011;22448;51.298;6.430;2023-02-28T15:31:37;7.05;;;3.50;;
35969;SDS011;22448;51.298;6.430;2023-02-28T15:34:36;4.68;;;2.53;;
35969;SDS011;22448;51.298;6.430;2023-02-28T15:40:22;5.32;;;3.03;;
35969;SDS011;22448;51.298;6.430;2023-02-28T15:43:12;11.05;;;3.30;;
35969;SDS011;22448;51.298;6.430;2023-02-28T15:45:48;5.45;;;3.08;;
35969;SDS011;22448;51.298;6.430;2023-02-28T15:48:20;12.73;;;3.60;;
35969;SDS011;22448;51.298;6.430;2023-02-28T15:50:51;6.68;;;3.60;;
35969;SDS011;22448;51.298;6.430;2023-02-28T15:53:24;7.88;;;2.70;;
35969;SDS011;22448;51.298;6.430;2023-02-28T15:55:55;5.55;;;2.83;;
35969;SDS011;22448;51.298;6.430;2023-02-28T15:58:26;6.60;;;3.42;;
35969;SDS011;22448;51.298;6.430;2023-02-28T16:01:28;8.77;;;4.60;;
35969;SDS011;22448;51.298;6.430;2023-02-28T16:03:51;8.30;;;4.10;;
35969;SDS011;22448;51.298;6.430;2023-02-28T16:06:32;6.93;;;3.63;;
35969;SDS011;22448;51.298;6.430;2023-02-28T16:09:00;5.82;;;3.42;;
35969;SDS011;22448;51.298;6.430;2023-02-28T16:11:27;5.88;;;3.38;;
35969;SDS011;22448;51.298;6.430;2023-02-28T16:13:55;8.35;;;3.35;;
35969;SDS011;22448;51.298;6.430;2023-02-28T16:16:23;4.22;;;3.28;;
35969;SDS011;22448;51.298;6.430;2023-02-28T16:18:52;4.80;;;3.00;;
35969;SDS011;22448;51.298;6.430;2023-02-28T16:21:19;5.43;;;3.63;;
35969;SDS011;22448;51.298;6.430;2023-02-28T16:23:46;6.82;;;3.70;;
35969;SDS011;22448;51.298;6.430;2023-02-28T16:26:21;7.90;;;3.42;;
35969;SDS011;22448;51.298;6.430;2023-02-28T16:28:50;5.40;;;3.40;;
35969;SDS011;22448;51.298;6.430;2023-02-28T16:31:18;4.82;;;3.05;;
35969;SDS011;22448;51.298;6.430;2023-02-28T16:33:47;5.63;;;3.65;;
35969;SDS011;22448;51.298;6.430;2023-02-28T16:36:18;19.88;;;4.50;;
35969;SDS011;22448;51.298;6.430;2023-02-28T16:38:46;11.43;;;3.78;;
35969;SDS011;22448;51.298;6.430;2023-02-28T16:41:21;9.05;;;4.57;;
35969;SDS011;22448;51.298;6.430;2023-02-28T16:43:52;8.02;;;3.72;;
35969;SDS011;22448;51.298;6.430;2023-02-28T16:46:25;10.88;;;3.53;;